createdAt,value
2022-09-15T00:01:00.996Z,15.49
2022-09-15T00:03:39.684Z,15.47
2022-09-15T00:06:08.211Z,15.47
2022-09-15T00:08:35.460Z,15.46
2022-09-15T00:11:20.839Z,15.46
2022-09-15T00:13:48.507Z,15.45
2022-09-15T00:16:15.832Z,15.47
2022-09-15T00:18:44.142Z,15.46
2022-09-15T00:21:17.830Z,15.45
2022-09-15T00:23:45.037Z,15.46
2022-09-15T00:26:15.753Z,15.47
2022-09-15T00:28:43.437Z,15.49
2022-09-15T00:31:14.564Z,15.50
2022-09-15T00:33:42.328Z,15.53
2022-09-15T00:36:11.382Z,15.52
2022-09-15T00:38:38.965Z,15.53
2022-09-15T00:41:07.860Z,15.55
2022-09-15T00:44:02.536Z,15.51
2022-09-15T00:46:35.540Z,15.54
2022-09-15T00:49:12.562Z,15.52
2022-09-15T00:51:48.510Z,15.53
2022-09-15T00:54:20.019Z,15.55
2022-09-15T00:56:49.783Z,15.55
2022-09-15T00:59:19.575Z,15.52
2022-09-15T01:01:49.165Z,15.53
2022-09-15T01:04:16.635Z,15.49
2022-09-15T01:06:56.106Z,15.48
2022-09-15T01:09:28.454Z,15.46
2022-09-15T01:11:55.532Z,15.46
2022-09-15T01:14:22.389Z,15.41
2022-09-15T01:16:55.309Z,15.36
2022-09-15T01:19:51.595Z,15.29
2022-09-15T01:22:24.396Z,15.24
2022-09-15T01:25:15.367Z,15.18
2022-09-15T01:27:54.635Z,15.12
2022-09-15T01:30:23.388Z,15.08
2022-09-15T01:33:11.683Z,15.02
2022-09-15T01:35:44.131Z,14.99
2022-09-15T01:38:48.998Z,14.98
2022-09-15T01:41:19.558Z,14.95
2022-09-15T01:44:06.520Z,14.93
2022-09-15T01:46:39.418Z,14.94
2022-09-15T01:49:11.207Z,14.93
2022-09-15T01:51:40.174Z,14.91
2022-09-15T01:54:08.910Z,14.91
2022-09-15T01:56:38.086Z,14.92
2022-09-15T01:59:05.580Z,14.93
2022-09-15T02:02:12.627Z,14.96
2022-09-15T02:04:55.902Z,14.99
2022-09-15T02:07:39.174Z,15.01
2022-09-15T02:10:30.999Z,15.03
2022-09-15T02:13:17.145Z,15.04
2022-09-15T02:15:51.769Z,15.03
2022-09-15T02:18:44.147Z,15.04
2022-09-15T02:21:24.132Z,15.06
2022-09-15T02:23:57.172Z,15.09
2022-09-15T02:26:28.805Z,15.12
2022-09-15T02:29:00.453Z,15.13
2022-09-15T02:31:29.442Z,15.15
2022-09-15T02:34:01.264Z,15.17
2022-09-15T02:36:29.524Z,15.18
2022-09-15T02:39:04.411Z,15.21
2022-09-15T02:41:33.009Z,15.23
2022-09-15T02:43:59.771Z,15.23
2022-09-15T02:46:26.689Z,15.24
2022-09-15T02:48:53.720Z,15.24
2022-09-15T02:51:20.544Z,15.23
2022-09-15T02:53:47.372Z,15.24
2022-09-15T02:56:15.759Z,15.24
2022-09-15T02:58:43.695Z,15.24
2022-09-15T03:01:15.712Z,15.23
2022-09-15T03:03:45.297Z,15.23
2022-09-15T03:06:19.949Z,15.19
2022-09-15T03:08:51.291Z,15.23
2022-09-15T03:11:20.980Z,15.25
2022-09-15T03:13:48.556Z,15.27
2022-09-15T03:16:16.559Z,15.27
2022-09-15T03:18:43.473Z,15.28
2022-09-15T03:21:13.938Z,15.30
2022-09-15T03:23:42.160Z,15.30
2022-09-15T03:26:09.574Z,15.30
2022-09-15T03:28:38.112Z,15.32
2022-09-15T03:31:06.564Z,15.30
2022-09-15T03:33:33.420Z,15.28
2022-09-15T03:36:00.568Z,15.27
2022-09-15T03:38:27.425Z,15.28
2022-09-15T03:41:03.697Z,15.27
2022-09-15T03:43:32.127Z,15.29
2022-09-15T03:45:59.389Z,15.29
2022-09-15T03:48:27.702Z,15.32
2022-09-15T03:50:54.759Z,15.33
2022-09-15T03:53:22.249Z,15.36
2022-09-15T03:55:49.920Z,15.38
2022-09-15T03:58:18.566Z,15.40
2022-09-15T04:00:46.164Z,15.43
2022-09-15T04:03:13.869Z,15.44
2022-09-15T04:05:42.197Z,15.46
2022-09-15T04:08:12.524Z,15.47
2022-09-15T04:10:40.723Z,15.49
2022-09-15T04:13:08.609Z,15.49
2022-09-15T04:15:35.453Z,15.50
2022-09-15T04:18:02.635Z,15.51
2022-09-15T04:20:29.705Z,15.50
2022-09-15T04:22:56.493Z,15.48
2022-09-15T04:25:24.234Z,15.49
2022-09-15T04:27:51.228Z,15.51
2022-09-15T04:30:18.069Z,15.50
2022-09-15T04:32:44.860Z,15.50
2022-09-15T04:35:12.333Z,15.49
2022-09-15T04:37:39.349Z,15.49
2022-09-15T04:40:06.740Z,15.48
2022-09-15T04:42:33.732Z,15.46
2022-09-15T04:45:00.513Z,15.44
2022-09-15T04:47:27.515Z,15.46
2022-09-15T04:49:54.540Z,15.50
2022-09-15T04:52:21.328Z,15.53
2022-09-15T04:54:48.127Z,15.55
2022-09-15T04:57:15.164Z,15.62
2022-09-15T04:59:41.952Z,15.68
2022-09-15T05:02:08.994Z,15.69
2022-09-15T05:04:36.043Z,15.72
2022-09-15T05:07:02.925Z,15.78
2022-09-15T05:09:31.044Z,15.83
2022-09-15T05:11:58.156Z,15.90
2022-09-15T05:14:24.948Z,15.95
2022-09-15T05:16:51.817Z,16.18
2022-09-15T05:19:18.811Z,16.51
2022-09-15T05:21:45.557Z,16.75
2022-09-15T05:24:12.369Z,16.89
2022-09-15T05:26:39.574Z,16.93
2022-09-15T05:29:06.395Z,16.92
2022-09-15T05:31:34.034Z,16.83
2022-09-15T05:34:03.211Z,16.85
2022-09-15T05:36:30.758Z,16.91
2022-09-15T05:38:58.121Z,16.98
2022-09-15T05:41:26.731Z,17.17
2022-09-15T05:43:55.314Z,17.35
2022-09-15T05:46:22.661Z,17.81
2022-09-15T05:48:49.797Z,18.46
2022-09-15T05:51:16.591Z,19.01
2022-09-15T05:53:43.367Z,19.56
2022-09-15T05:56:13.026Z,20.16
2022-09-15T05:58:42.066Z,20.68
2022-09-15T06:01:13.614Z,21.07
2022-09-15T06:03:40.832Z,21.21
2022-09-15T06:06:07.877Z,21.41
2022-09-15T06:08:37.239Z,21.84
2022-09-15T06:11:16.707Z,21.79
2022-09-15T06:13:44.991Z,21.95
2022-09-15T06:16:15.140Z,22.17
2022-09-15T06:18:42.279Z,22.48
2022-09-15T06:21:21.717Z,22.62
2022-09-15T06:23:55.690Z,22.55
2022-09-15T06:26:23.627Z,22.37
2022-09-15T06:28:53.078Z,21.48
2022-09-15T06:31:20.559Z,20.71
2022-09-15T06:33:51.496Z,20.08
2022-09-15T06:36:20.439Z,19.82
2022-09-15T06:38:48.015Z,19.88
2022-09-15T06:41:15.843Z,20.21
2022-09-15T06:43:43.995Z,20.17
2022-09-15T06:46:14.955Z,19.89
2022-09-15T06:48:44.309Z,19.47
2022-09-15T06:51:17.146Z,19.16
2022-09-15T06:53:44.811Z,18.97
2022-09-15T06:56:14.848Z,18.78
2022-09-15T06:58:42.771Z,18.66
2022-09-15T07:01:13.026Z,18.62
2022-09-15T07:03:42.601Z,18.51
2022-09-15T07:06:11.928Z,18.38
2022-09-15T07:08:39.759Z,18.28
2022-09-15T07:11:07.207Z,18.25
2022-09-15T07:13:34.872Z,18.19
2022-09-15T07:16:05.901Z,18.12
2022-09-15T07:18:33.272Z,18.14
2022-09-15T07:21:03.204Z,18.22
2022-09-15T07:23:30.366Z,18.35
2022-09-15T07:26:17.798Z,18.60
2022-09-15T07:28:48.075Z,18.88
2022-09-15T07:31:17.115Z,19.64
2022-09-15T07:33:44.266Z,20.64
2022-09-15T07:36:11.767Z,21.70
2022-09-15T07:38:42.200Z,22.32
2022-09-15T07:41:21.157Z,22.51
2022-09-15T07:43:49.719Z,23.10
2022-09-15T07:46:17.647Z,23.77
2022-09-15T07:48:45.928Z,24.31
2022-09-15T07:51:13.878Z,24.61
2022-09-15T07:53:40.991Z,24.93
2022-09-15T07:56:08.206Z,24.83
2022-09-15T07:58:35.297Z,24.58
2022-09-15T08:01:07.308Z,24.65
2022-09-15T08:03:34.257Z,24.41
2022-09-15T08:06:02.555Z,24.07
2022-09-15T08:08:30.502Z,23.73
2022-09-15T08:10:57.383Z,23.27
2022-09-15T08:13:25.093Z,23.03
2022-09-15T08:15:52.566Z,22.72
2022-09-15T08:18:19.574Z,22.67
2022-09-15T08:20:46.542Z,22.69
2022-09-15T08:23:14.055Z,22.53
2022-09-15T08:25:40.916Z,22.35
2022-09-15T08:28:08.423Z,22.26
2022-09-15T08:30:35.454Z,22.25
2022-09-15T08:33:02.239Z,22.14
2022-09-15T08:35:30.090Z,21.90
2022-09-15T08:37:56.910Z,21.86
2022-09-15T08:40:33.078Z,21.61
2022-09-15T08:43:06.264Z,21.31
2022-09-15T08:45:46.342Z,21.25
2022-09-15T08:48:17.109Z,21.25
2022-09-15T08:50:50.081Z,21.30
2022-09-15T08:53:29.982Z,21.29
2022-09-15T08:56:00.355Z,21.35
2022-09-15T08:58:31.526Z,21.38
2022-09-15T09:00:58.256Z,21.52
2022-09-15T09:03:58.670Z,21.44
2022-09-15T09:06:52.758Z,21.56
2022-09-15T09:09:38.470Z,21.58
2022-09-15T09:12:14.496Z,21.68
2022-09-15T09:14:47.311Z,21.33
2022-09-15T09:17:29.650Z,21.32
2022-09-15T09:20:22.919Z,21.58
2022-09-15T09:22:53.316Z,21.89
2022-09-15T09:25:27.725Z,22.05
2022-09-15T09:27:58.360Z,22.08
2022-09-15T09:30:27.882Z,22.04
2022-09-15T09:33:03.055Z,21.87
2022-09-15T09:35:41.540Z,21.64
2022-09-15T09:38:10.210Z,21.45
2022-09-15T09:40:40.530Z,21.50
2022-09-15T09:43:08.811Z,21.69
2022-09-15T09:45:35.887Z,21.53
2022-09-15T09:48:15.404Z,21.37
2022-09-15T09:50:43.673Z,21.11
2022-09-15T09:53:26.296Z,20.99
2022-09-15T09:55:55.334Z,20.71
2022-09-15T09:58:24.215Z,20.48
2022-09-15T10:00:53.529Z,20.45
2022-09-15T10:03:26.217Z,20.46
2022-09-15T10:06:06.523Z,20.59
2022-09-15T10:08:36.064Z,20.86
2022-09-15T10:11:06.239Z,21.02
2022-09-15T10:13:35.616Z,21.24
2022-09-15T10:16:06.279Z,21.26
2022-09-15T10:18:36.552Z,21.44
2022-09-15T10:21:09.556Z,21.50
2022-09-15T10:23:36.807Z,21.62
2022-09-15T10:26:30.025Z,21.58
2022-09-15T10:29:15.866Z,21.53
2022-09-15T10:31:44.605Z,21.38
2022-09-15T10:34:31.147Z,21.21
2022-09-15T10:37:08.531Z,20.86
2022-09-15T10:39:51.731Z,20.62
2022-09-15T10:42:44.863Z,20.50
2022-09-15T10:45:36.883Z,20.45
2022-09-15T10:48:10.227Z,20.35
2022-09-15T10:50:49.869Z,20.20
2022-09-15T10:53:34.664Z,20.00
2022-09-15T10:56:17.800Z,19.74
2022-09-15T10:59:03.709Z,19.73
2022-09-15T11:01:30.729Z,19.78
2022-09-15T11:04:13.371Z,19.87
2022-09-15T11:06:50.488Z,19.82
2022-09-15T11:09:26.002Z,19.63
2022-09-15T11:12:04.828Z,19.40
2022-09-15T11:15:03.911Z,19.14
2022-09-15T11:17:31.083Z,19.00
2022-09-15T11:20:00.844Z,18.89
2022-09-15T11:22:33.380Z,18.82
2022-09-15T11:25:17.655Z,18.76
2022-09-15T11:27:55.852Z,18.81
2022-09-15T11:30:25.557Z,18.92
2022-09-15T11:33:13.639Z,19.04
2022-09-15T11:35:45.224Z,19.17
2022-09-15T11:38:13.070Z,19.24
2022-09-15T11:40:48.297Z,19.24
2022-09-15T11:43:24.159Z,19.22
2022-09-15T11:45:56.561Z,19.17
2022-09-15T11:48:48.170Z,19.16
2022-09-15T11:51:21.576Z,19.23
2022-09-15T11:53:58.978Z,19.29
2022-09-15T11:56:42.031Z,19.23
2022-09-15T11:59:41.856Z,19.01
2022-09-15T12:02:21.962Z,18.86
2022-09-15T12:05:03.322Z,18.69
2022-09-15T12:07:32.979Z,18.58
2022-09-15T12:10:07.308Z,18.45
2022-09-15T12:12:35.921Z,18.39
2022-09-15T12:15:03.634Z,18.39
2022-09-15T12:17:41.962Z,18.36
2022-09-15T12:20:26.781Z,18.33
2022-09-15T12:23:12.186Z,18.31
2022-09-15T12:26:14.342Z,18.31
2022-09-15T12:28:47.095Z,18.27
2022-09-15T12:31:14.479Z,18.26
2022-09-15T12:34:13.090Z,18.17
2022-09-15T12:36:52.483Z,18.06
2022-09-15T12:39:38.063Z,17.96
2022-09-15T12:42:14.073Z,17.90
2022-09-15T12:44:49.899Z,17.77
2022-09-15T12:47:37.977Z,17.72
2022-09-15T12:50:08.370Z,17.69
2022-09-15T12:52:51.614Z,17.64
2022-09-15T12:55:23.469Z,17.62
2022-09-15T12:58:00.204Z,17.65
2022-09-15T13:00:34.792Z,17.67
2022-09-15T13:03:03.994Z,17.73
2022-09-15T13:05:43.061Z,17.71
2022-09-15T13:08:15.394Z,17.72
2022-09-15T13:10:59.839Z,17.81
2022-09-15T13:13:43.959Z,17.90
2022-09-15T13:16:17.009Z,18.06
2022-09-15T13:18:47.103Z,18.19
2022-09-15T13:21:23.111Z,18.30
2022-09-15T13:23:57.177Z,18.41
2022-09-15T13:26:29.618Z,18.48
2022-09-15T13:29:00.308Z,18.52
2022-09-15T13:31:41.213Z,18.56
2022-09-15T13:40:52.022Z,18.81
2022-09-15T13:44:10.187Z,18.96
2022-09-15T13:47:25.949Z,19.15
2022-09-15T13:50:24.873Z,19.36
2022-09-15T13:52:57.781Z,19.57
2022-09-15T13:55:27.823Z,19.72
2022-09-15T14:00:54.972Z,20.09
2022-09-15T14:03:27.803Z,20.31
2022-09-15T14:06:00.437Z,20.41
2022-09-15T14:08:38.212Z,20.24
2022-09-15T14:11:13.159Z,20.18
2022-09-15T14:13:49.122Z,20.11
2022-09-15T14:16:26.401Z,19.96
2022-09-15T14:18:57.724Z,19.88
2022-09-15T14:21:28.410Z,19.88
2022-09-15T14:23:57.819Z,19.85
2022-09-15T14:26:28.777Z,19.52
2022-09-15T14:28:58.811Z,19.41
2022-09-15T14:31:37.968Z,19.16
2022-09-15T14:34:15.620Z,18.99
2022-09-15T14:36:43.062Z,19.01
2022-09-15T14:39:12.877Z,18.98
2022-09-15T14:41:40.264Z,18.95
2022-09-15T14:56:05.652Z,19.05
2022-09-15T14:58:41.809Z,18.77
2022-09-15T15:01:46.601Z,18.65
2022-09-15T15:04:35.207Z,18.51
2022-09-15T15:07:29.076Z,18.40
2022-09-15T15:10:00.546Z,18.29
2022-09-15T15:12:34.484Z,18.14
2022-09-15T15:15:01.954Z,18.08
2022-09-15T15:17:38.540Z,18.00
2022-09-15T15:20:08.957Z,17.96
2022-09-15T15:22:37.409Z,17.94
2022-09-15T15:25:28.307Z,17.87
2022-09-15T15:28:00.143Z,17.84
2022-09-15T15:30:30.835Z,17.77
2022-09-15T15:33:12.698Z,17.73
2022-09-15T15:35:42.000Z,17.70
2022-09-15T15:38:17.067Z,17.67
2022-09-15T15:40:45.631Z,17.63
2022-09-15T15:43:15.558Z,17.58
2022-09-15T15:45:58.433Z,17.51
2022-09-15T15:48:27.482Z,17.44
2022-09-15T15:50:55.235Z,17.39
2022-09-15T15:53:23.734Z,17.36
2022-09-15T15:55:50.896Z,17.29
2022-09-15T15:58:17.846Z,17.27
2022-09-15T16:00:47.610Z,17.20
2022-09-15T16:03:16.452Z,17.16
2022-09-15T16:05:49.508Z,17.12
2022-09-15T16:08:30.209Z,17.04
2022-09-15T16:10:57.948Z,17.00
2022-09-15T16:13:25.960Z,16.95
2022-09-15T16:15:53.930Z,16.87
2022-09-15T16:18:21.537Z,16.79
2022-09-15T16:20:48.598Z,16.75
2022-09-15T16:23:22.454Z,16.71
2022-09-15T16:26:01.924Z,16.65
2022-09-15T16:28:28.924Z,16.60
2022-09-15T16:30:57.237Z,16.53
2022-09-15T16:33:25.122Z,16.47
2022-09-15T16:36:08.979Z,16.39
2022-09-15T16:38:36.911Z,16.34
2022-09-15T16:41:10.959Z,16.30
2022-09-15T16:43:38.044Z,16.23
2022-09-15T16:46:06.306Z,16.19
2022-09-15T16:48:34.284Z,16.16
2022-09-15T16:51:23.057Z,16.10
2022-09-15T16:53:49.001Z,16.04
2022-09-15T16:56:16.180Z,16.00
2022-09-15T16:58:44.095Z,15.94
2022-09-15T17:01:17.825Z,15.90
2022-09-15T17:03:45.039Z,15.88
2022-09-15T17:06:14.733Z,15.89
2022-09-15T17:08:41.732Z,15.86
2022-09-15T17:11:16.627Z,15.82
2022-09-15T17:13:44.519Z,15.81
2022-09-15T17:16:14.992Z,15.82
2022-09-15T17:18:42.063Z,15.80
2022-09-15T17:21:12.842Z,15.77
2022-09-15T17:23:43.426Z,15.77
2022-09-15T17:26:13.576Z,15.77
2022-09-15T17:28:42.361Z,15.74
2022-09-15T17:31:15.888Z,15.69
2022-09-15T17:33:43.579Z,15.66
2022-09-15T17:36:11.224Z,15.64
2022-09-15T17:38:40.752Z,15.62
2022-09-15T17:41:14.758Z,15.58
2022-09-15T17:43:42.041Z,15.55
2022-09-15T17:46:09.239Z,15.52
2022-09-15T17:48:39.231Z,15.47
2022-09-15T17:51:07.202Z,15.41
2022-09-15T17:53:34.299Z,15.33
2022-09-15T17:56:01.427Z,15.29
2022-09-15T17:58:30.036Z,15.24
2022-09-15T18:00:57.880Z,15.21
2022-09-15T18:03:28.120Z,15.20
2022-09-15T18:06:00.801Z,15.17
2022-09-15T18:08:28.085Z,15.16
2022-09-15T18:10:55.737Z,15.16
2022-09-15T18:13:26.962Z,15.15
2022-09-15T18:15:54.550Z,15.13
2022-09-15T18:18:24.123Z,15.09
2022-09-15T18:20:53.180Z,15.09
2022-09-15T18:23:22.587Z,15.09
2022-09-15T18:25:50.830Z,15.09
2022-09-15T18:28:18.732Z,15.07
2022-09-15T18:30:48.797Z,15.04
2022-09-15T18:33:22.969Z,14.99
2022-09-15T18:35:52.473Z,14.97
2022-09-15T18:38:19.828Z,14.93
2022-09-15T18:40:49.167Z,14.93
2022-09-15T18:43:17.210Z,14.93
2022-09-15T18:45:44.213Z,14.92
2022-09-15T18:48:13.043Z,14.93
2022-09-15T18:50:41.906Z,14.93
2022-09-15T18:53:09.260Z,14.92
2022-09-15T18:55:36.279Z,14.91
2022-09-15T18:58:03.265Z,14.89
2022-09-15T19:00:31.559Z,14.90
2022-09-15T19:03:00.477Z,14.91
2022-09-15T19:05:28.907Z,14.90
2022-09-15T19:07:56.681Z,14.90
2022-09-15T19:10:24.448Z,14.92
2022-09-15T19:12:51.571Z,14.91
2022-09-15T19:15:23.665Z,14.91
2022-09-15T19:17:50.981Z,14.90
2022-09-15T19:20:18.278Z,14.89
2022-09-15T19:22:46.146Z,14.91
2022-09-15T19:25:13.565Z,14.89
2022-09-15T19:27:41.631Z,14.91
2022-09-15T19:30:12.385Z,14.88
2022-09-15T19:32:40.241Z,14.89
2022-09-15T19:35:08.817Z,14.91
2022-09-15T19:37:38.074Z,14.89
2022-09-15T19:40:09.084Z,14.87
2022-09-15T19:42:38.204Z,14.89
2022-09-15T19:45:06.052Z,14.87
2022-09-15T19:47:32.871Z,14.90
2022-09-15T19:50:00.028Z,14.87
2022-09-15T19:52:27.707Z,14.87
2022-09-15T19:54:54.544Z,14.85
2022-09-15T19:57:21.585Z,14.83
2022-09-15T19:59:48.452Z,14.87
2022-09-15T20:02:15.569Z,14.85
2022-09-15T20:04:43.458Z,14.86
2022-09-15T20:07:10.461Z,14.86
2022-09-15T20:09:37.352Z,14.87
2022-09-15T20:12:04.735Z,14.88
2022-09-15T20:14:31.722Z,14.90
2022-09-15T20:17:01.162Z,14.91
2022-09-15T20:19:29.584Z,14.91
2022-09-15T20:21:56.865Z,14.95
2022-09-15T20:24:24.405Z,14.95
2022-09-15T20:26:53.065Z,14.92
2022-09-15T20:29:20.789Z,14.91
2022-09-15T20:31:48.118Z,14.91
2022-09-15T20:34:15.701Z,14.91
2022-09-15T20:36:43.662Z,14.90
2022-09-15T20:39:14.671Z,14.91
2022-09-15T20:41:45.215Z,14.88
2022-09-15T20:44:12.424Z,14.86
2022-09-15T20:46:39.717Z,14.84
2022-09-15T20:49:07.516Z,14.81
2022-09-15T20:51:34.698Z,14.77
2022-09-15T20:54:03.808Z,14.75
2022-09-15T20:56:31.780Z,14.67
2022-09-15T20:59:00.565Z,14.67
2022-09-15T21:01:38.554Z,14.68
2022-09-15T21:04:08.714Z,14.68
2022-09-15T21:06:36.053Z,14.63
2022-09-15T21:09:04.641Z,14.63
2022-09-15T21:11:32.124Z,14.61
2022-09-15T21:13:59.046Z,14.61
2022-09-15T21:16:28.425Z,14.59
2022-09-15T21:18:58.059Z,14.57
2022-09-15T21:21:27.509Z,14.57
2022-09-15T21:23:56.522Z,14.59
2022-09-15T21:26:27.573Z,14.52
2022-09-15T21:28:56.332Z,14.55
2022-09-15T21:31:26.272Z,14.54
2022-09-15T21:33:54.527Z,14.54
2022-09-15T21:36:30.128Z,14.52
2022-09-15T21:38:59.090Z,14.52
2022-09-15T21:41:30.117Z,14.51
2022-09-15T21:43:59.180Z,14.54
2022-09-15T21:46:29.037Z,14.53
2022-09-15T21:48:57.689Z,14.53
2022-09-15T21:51:26.433Z,14.52
2022-09-15T21:53:55.053Z,14.50
2022-09-15T21:56:22.872Z,14.50
2022-09-15T21:58:49.796Z,14.50
2022-09-15T22:01:20.974Z,14.48
2022-09-15T22:03:51.545Z,14.47
2022-09-15T22:06:20.804Z,14.46
2022-09-15T22:08:47.964Z,14.46
2022-09-15T22:11:15.348Z,14.48
2022-09-15T22:13:44.682Z,14.48
2022-09-15T22:16:18.358Z,14.45
2022-09-15T22:18:46.164Z,14.47
2022-09-15T22:21:22.494Z,14.46
2022-09-15T22:23:51.062Z,14.46
2022-09-15T22:26:20.696Z,14.45
2022-09-15T22:28:48.243Z,14.46
2022-09-15T22:31:17.210Z,14.50
2022-09-15T22:33:45.206Z,14.47
2022-09-15T22:36:13.985Z,14.46
2022-09-15T22:38:41.501Z,14.46
2022-09-15T22:41:12.017Z,14.46
2022-09-15T22:43:40.197Z,14.46
2022-09-15T22:46:07.891Z,14.44
2022-09-15T22:48:37.493Z,14.44
2022-09-15T22:51:07.324Z,14.41
2022-09-15T22:53:34.850Z,14.40
2022-09-15T22:56:14.135Z,14.38
2022-09-15T22:58:46.463Z,14.40
2022-09-15T23:01:18.838Z,14.37
2022-09-15T23:03:56.743Z,14.34
2022-09-15T23:06:25.314Z,14.33
2022-09-15T23:08:54.722Z,14.33
2022-09-15T23:11:22.298Z,14.33
2022-09-15T23:13:49.196Z,14.32
2022-09-15T23:16:17.311Z,14.32
2022-09-15T23:18:46.033Z,14.32
2022-09-15T23:21:13.679Z,14.31
2022-09-15T23:23:43.358Z,14.25
2022-09-15T23:26:12.557Z,14.26
2022-09-15T23:28:40.306Z,14.22
2022-09-15T23:31:10.248Z,14.23
2022-09-15T23:33:37.131Z,14.22
2022-09-15T23:36:07.031Z,14.20
2022-09-15T23:38:38.834Z,14.18
2022-09-15T23:41:06.934Z,14.19
2022-09-15T23:43:34.587Z,14.16
2022-09-15T23:46:02.553Z,14.11
2022-09-15T23:48:31.793Z,14.11
2022-09-15T23:50:58.767Z,14.09
2022-09-15T23:53:25.860Z,14.07
2022-09-15T23:55:52.850Z,14.04
2022-09-15T23:58:19.787Z,14.00
